sensor_id;sensor_type;location;lat;lon;timestamp;temperature;humidity
40822;DHT22;26542;50.836;5.356;2023-04-04T00:00:32;4.40;99.30
40822;DHT22;26542;50.836;5.356;2023-04-04T00:02:57;4.40;99.60
40822;DHT22;26542;50.836;5.356;2023-04-04T00:05:23;4.30;99.70
40822;DHT22;26542;50.836;5.356;2023-04-04T00:07:49;4.20;99.90
40822;DHT22;26542;50.836;5.356;2023-04-04T00:10:15;4.10;99.90
40822;DHT22;26542;50.836;5.356;2023-04-04T00:12:41;4.20;99.90
40822;DHT22;26542;50.836;5.356;2023-04-04T00:15:07;4.10;99.90
40822;DHT22;26542;50.836;5.356;2023-04-04T00:17:33;4.00;99.90
40822;DHT22;26542;50.836;5.356;2023-04-04T00:19:59;3.90;99.90
40822;DHT22;26542;50.836;5.356;2023-04-04T00:22:26;3.90;99.90
40822;DHT22;26542;50.836;5.356;2023-04-04T00:24:52;3.90;99.90
40822;DHT22;26542;50.836;5.356;2023-04-04T00:27:18;3.80;99.90
40822;DHT22;26542;50.836;5.356;2023-04-04T00:29:44;3.90;99.90
40822;DHT22;26542;50.836;5.356;2023-04-04T00:32:10;3.90;99.90
40822;DHT22;26542;50.836;5.356;2023-04-04T00:34:36;3.80;99.90
40822;DHT22;26542;50.836;5.356;2023-04-04T00:37:02;3.80;99.90
40822;DHT22;26542;50.836;5.356;2023-04-04T00:39:28;3.80;99.90
40822;DHT22;26542;50.836;5.356;2023-04-04T00:41:54;3.80;99.90
40822;DHT22;26542;50.836;5.356;2023-04-04T00:44:19;3.70;99.90
40822;DHT22;26542;50.836;5.356;2023-04-04T00:46:45;3.80;99.90
40822;DHT22;26542;50.836;5.356;2023-04-04T00:49:11;3.60;99.90
40822;DHT22;26542;50.836;5.356;2023-04-04T00:51:37;3.60;99.90
40822;DHT22;26542;50.836;5.356;2023-04-04T00:54:02;3.50;99.90
40822;DHT22;26542;50.836;5.356;2023-04-04T00:56:29;3.50;99.90
40822;DHT22;26542;50.836;5.356;2023-04-04T00:58:57;3.50;99.90
40822;DHT22;26542;50.836;5.356;2023-04-04T01:01:23;3.50;99.90
40822;DHT22;26542;50.836;5.356;2023-04-04T01:03:51;3.50;99.90
40822;DHT22;26542;50.836;5.356;2023-04-04T01:06:17;3.50;99.90
40822;DHT22;26542;50.836;5.356;2023-04-04T01:08:43;3.50;99.90
40822;DHT22;26542;50.836;5.356;2023-04-04T01:11:10;3.40;99.90
40822;DHT22;26542;50.836;5.356;2023-04-04T01:13:36;3.40;99.90
40822;DHT22;26542;50.836;5.356;2023-04-04T01:16:01;3.30;99.90
40822;DHT22;26542;50.836;5.356;2023-04-04T01:18:27;3.30;99.90
40822;DHT22;26542;50.836;5.356;2023-04-04T01:21:04;3.20;99.90
40822;DHT22;26542;50.836;5.356;2023-04-04T01:26:20;3.10;99.90
40822;DHT22;26542;50.836;5.356;2023-04-04T01:28:46;3.00;99.90
40822;DHT22;26542;50.836;5.356;2023-04-04T01:31:13;3.00;99.90
40822;DHT22;26542;50.836;5.356;2023-04-04T01:33:50;3.00;99.90
40822;DHT22;26542;50.836;5.356;2023-04-04T01:36:51;3.00;99.90
40822;DHT22;26542;50.836;5.356;2023-04-04T01:39:34;2.90;99.90
40822;DHT22;26542;50.836;5.356;2023-04-04T01:42:01;2.90;99.90
40822;DHT22;26542;50.836;5.356;2023-04-04T01:44:27;2.90;99.90
40822;DHT22;26542;50.836;5.356;2023-04-04T01:46:54;3.20;99.90
40822;DHT22;26542;50.836;5.356;2023-04-04T01:49:23;2.90;99.90
40822;DHT22;26542;50.836;5.356;2023-04-04T01:51:50;2.90;99.90
40822;DHT22;26542;50.836;5.356;2023-04-04T01:54:16;2.90;99.90
40822;DHT22;26542;50.836;5.356;2023-04-04T01:56:44;2.90;99.90
40822;DHT22;26542;50.836;5.356;2023-04-04T01:59:10;2.90;99.90
40822;DHT22;26542;50.836;5.356;2023-04-04T02:01:36;2.80;99.90
40822;DHT22;26542;50.836;5.356;2023-04-04T02:04:03;2.80;99.90
40822;DHT22;26542;50.836;5.356;2023-04-04T02:06:29;2.90;99.90
40822;DHT22;26542;50.836;5.356;2023-04-04T02:08:54;2.80;99.90
40822;DHT22;26542;50.836;5.356;2023-04-04T02:11:21;2.80;99.90
40822;DHT22;26542;50.836;5.356;2023-04-04T02:13:48;2.90;99.90
40822;DHT22;26542;50.836;5.356;2023-04-04T02:16:13;2.80;99.90
40822;DHT22;26542;50.836;5.356;2023-04-04T02:18:40;2.70;99.90
40822;DHT22;26542;50.836;5.356;2023-04-04T02:21:06;2.70;99.90
40822;DHT22;26542;50.836;5.356;2023-04-04T02:23:32;2.70;99.90
40822;DHT22;26542;50.836;5.356;2023-04-04T02:25:58;2.70;99.90
40822;DHT22;26542;50.836;5.356;2023-04-04T02:28:24;2.70;99.90
40822;DHT22;26542;50.836;5.356;2023-04-04T02:30:49;2.70;99.90
40822;DHT22;26542;50.836;5.356;2023-04-04T02:33:15;2.70;99.90
40822;DHT22;26542;50.836;5.356;2023-04-04T02:35:41;2.60;99.90
40822;DHT22;26542;50.836;5.356;2023-04-04T02:38:07;2.50;99.90
40822;DHT22;26542;50.836;5.356;2023-04-04T02:40:32;2.50;99.90
40822;DHT22;26542;50.836;5.356;2023-04-04T02:42:58;2.40;99.90
40822;DHT22;26542;50.836;5.356;2023-04-04T02:45:24;2.40;99.90
40822;DHT22;26542;50.836;5.356;2023-04-04T02:47:51;2.40;99.90
40822;DHT22;26542;50.836;5.356;2023-04-04T02:50:17;2.30;99.90
40822;DHT22;26542;50.836;5.356;2023-04-04T02:52:43;2.30;99.90
40822;DHT22;26542;50.836;5.356;2023-04-04T02:55:09;2.20;99.90
40822;DHT22;26542;50.836;5.356;2023-04-04T02:57:34;2.20;99.90
40822;DHT22;26542;50.836;5.356;2023-04-04T03:00:00;2.20;99.90
40822;DHT22;26542;50.836;5.356;2023-04-04T03:02:28;2.20;99.90
40822;DHT22;26542;50.836;5.356;2023-04-04T03:04:54;2.20;99.90
40822;DHT22;26542;50.836;5.356;2023-04-04T03:07:20;2.20;99.90
40822;DHT22;26542;50.836;5.356;2023-04-04T03:09:47;2.20;99.90
40822;DHT22;26542;50.836;5.356;2023-04-04T03:12:13;2.40;99.90
40822;DHT22;26542;50.836;5.356;2023-04-04T03:14:39;2.20;99.90
40822;DHT22;26542;50.836;5.356;2023-04-04T03:17:05;2.30;99.90
40822;DHT22;26542;50.836;5.356;2023-04-04T03:19:32;2.10;99.90
40822;DHT22;26542;50.836;5.356;2023-04-04T03:21:58;2.00;99.90
40822;DHT22;26542;50.836;5.356;2023-04-04T03:24:23;2.50;99.90
40822;DHT22;26542;50.836;5.356;2023-04-04T03:26:49;1.90;99.90
40822;DHT22;26542;50.836;5.356;2023-04-04T03:29:15;2.00;99.90
40822;DHT22;26542;50.836;5.356;2023-04-04T03:31:41;2.00;99.90
40822;DHT22;26542;50.836;5.356;2023-04-04T03:34:07;2.00;99.90
40822;DHT22;26542;50.836;5.356;2023-04-04T03:36:33;1.90;99.90
40822;DHT22;26542;50.836;5.356;2023-04-04T03:38:59;1.90;99.90
40822;DHT22;26542;50.836;5.356;2023-04-04T03:41:25;1.80;99.90
40822;DHT22;26542;50.836;5.356;2023-04-04T03:43:51;1.80;99.90
40822;DHT22;26542;50.836;5.356;2023-04-04T03:46:17;1.70;99.90
40822;DHT22;26542;50.836;5.356;2023-04-04T03:48:42;1.70;99.90
40822;DHT22;26542;50.836;5.356;2023-04-04T03:51:08;1.70;99.90
40822;DHT22;26542;50.836;5.356;2023-04-04T03:53:34;1.70;99.90
40822;DHT22;26542;50.836;5.356;2023-04-04T03:56:01;1.70;99.90
40822;DHT22;26542;50.836;5.356;2023-04-04T03:58:27;1.80;99.90
40822;DHT22;26542;50.836;5.356;2023-04-04T04:00:53;1.90;99.90
40822;DHT22;26542;50.836;5.356;2023-04-04T04:03:19;1.60;99.90
40822;DHT22;26542;50.836;5.356;2023-04-04T04:05:46;1.60;99.90
40822;DHT22;26542;50.836;5.356;2023-04-04T04:08:12;1.60;99.90
40822;DHT22;26542;50.836;5.356;2023-04-04T04:10:38;1.50;99.90
40822;DHT22;26542;50.836;5.356;2023-04-04T04:13:04;1.50;99.90
40822;DHT22;26542;50.836;5.356;2023-04-04T04:15:29;1.60;99.90
40822;DHT22;26542;50.836;5.356;2023-04-04T04:17:55;1.60;99.90
40822;DHT22;26542;50.836;5.356;2023-04-04T04:20:21;1.70;99.90
40822;DHT22;26542;50.836;5.356;2023-04-04T04:22:47;1.60;99.90
40822;DHT22;26542;50.836;5.356;2023-04-04T04:25:13;1.60;99.90
40822;DHT22;26542;50.836;5.356;2023-04-04T04:27:39;1.60;99.90
40822;DHT22;26542;50.836;5.356;2023-04-04T04:30:06;1.60;99.90
40822;DHT22;26542;50.836;5.356;2023-04-04T04:32:32;1.50;99.90
40822;DHT22;26542;50.836;5.356;2023-04-04T04:34:58;1.50;99.90
40822;DHT22;26542;50.836;5.356;2023-04-04T04:37:23;1.50;99.90
40822;DHT22;26542;50.836;5.356;2023-04-04T04:39:50;1.90;99.90
40822;DHT22;26542;50.836;5.356;2023-04-04T04:42:17;2.00;99.90
40822;DHT22;26542;50.836;5.356;2023-04-04T04:44:42;1.40;99.90
40822;DHT22;26542;50.836;5.356;2023-04-04T04:47:08;1.40;99.90
40822;DHT22;26542;50.836;5.356;2023-04-04T04:49:34;1.50;99.90
40822;DHT22;26542;50.836;5.356;2023-04-04T04:51:59;1.50;99.90
40822;DHT22;26542;50.836;5.356;2023-04-04T04:54:26;1.40;99.90
40822;DHT22;26542;50.836;5.356;2023-04-04T04:56:52;1.40;99.90
40822;DHT22;26542;50.836;5.356;2023-04-04T04:59:18;1.50;99.90
40822;DHT22;26542;50.836;5.356;2023-04-04T05:01:44;1.40;99.90
40822;DHT22;26542;50.836;5.356;2023-04-04T05:04:10;1.40;99.90
40822;DHT22;26542;50.836;5.356;2023-04-04T05:06:36;1.40;99.90
40822;DHT22;26542;50.836;5.356;2023-04-04T05:09:03;1.40;99.90
40822;DHT22;26542;50.836;5.356;2023-04-04T05:11:28;1.40;99.90
40822;DHT22;26542;50.836;5.356;2023-04-04T05:13:55;1.30;99.90
40822;DHT22;26542;50.836;5.356;2023-04-04T05:16:21;1.40;99.90
40822;DHT22;26542;50.836;5.356;2023-04-04T05:18:47;1.30;99.90
40822;DHT22;26542;50.836;5.356;2023-04-04T05:21:12;1.40;99.90
40822;DHT22;26542;50.836;5.356;2023-04-04T05:23:38;1.20;99.90
40822;DHT22;26542;50.836;5.356;2023-04-04T05:26:04;1.20;99.90
40822;DHT22;26542;50.836;5.356;2023-04-04T05:28:30;1.30;99.90
40822;DHT22;26542;50.836;5.356;2023-04-04T05:30:56;1.20;99.90
40822;DHT22;26542;50.836;5.356;2023-04-04T05:33:22;1.10;99.90
40822;DHT22;26542;50.836;5.356;2023-04-04T05:35:48;1.10;99.90
40822;DHT22;26542;50.836;5.356;2023-04-04T05:38:13;1.10;99.90
40822;DHT22;26542;50.836;5.356;2023-04-04T05:40:42;1.20;99.90
40822;DHT22;26542;50.836;5.356;2023-04-04T05:43:09;1.20;99.90
40822;DHT22;26542;50.836;5.356;2023-04-04T05:45:35;1.20;99.90
40822;DHT22;26542;50.836;5.356;2023-04-04T05:48:01;1.20;99.90
40822;DHT22;26542;50.836;5.356;2023-04-04T05:50:26;1.60;99.90
40822;DHT22;26542;50.836;5.356;2023-04-04T05:52:53;1.30;99.90
40822;DHT22;26542;50.836;5.356;2023-04-04T05:55:20;1.60;99.90
40822;DHT22;26542;50.836;5.356;2023-04-04T05:57:49;1.30;99.90
40822;DHT22;26542;50.836;5.356;2023-04-04T06:00:16;1.30;99.90
40822;DHT22;26542;50.836;5.356;2023-04-04T06:02:42;1.30;99.90
40822;DHT22;26542;50.836;5.356;2023-04-04T06:05:09;1.40;99.90
40822;DHT22;26542;50.836;5.356;2023-04-04T06:07:35;1.40;99.90
40822;DHT22;26542;50.836;5.356;2023-04-04T06:10:00;1.50;99.90
40822;DHT22;26542;50.836;5.356;2023-04-04T06:12:26;1.70;99.90
40822;DHT22;26542;50.836;5.356;2023-04-04T06:14:52;2.00;99.90
40822;DHT22;26542;50.836;5.356;2023-04-04T06:17:17;1.40;99.90
40822;DHT22;26542;50.836;5.356;2023-04-04T06:19:43;1.80;99.90
40822;DHT22;26542;50.836;5.356;2023-04-04T06:22:09;1.90;99.90
40822;DHT22;26542;50.836;5.356;2023-04-04T06:24:35;2.40;99.90
40822;DHT22;26542;50.836;5.356;2023-04-04T06:27:00;2.20;99.90
40822;DHT22;26542;50.836;5.356;2023-04-04T06:29:27;2.30;99.90
40822;DHT22;26542;50.836;5.356;2023-04-04T06:31:53;2.40;99.90
40822;DHT22;26542;50.836;5.356;2023-04-04T06:34:20;2.50;99.90
40822;DHT22;26542;50.836;5.356;2023-04-04T06:36:46;2.80;99.90
40822;DHT22;26542;50.836;5.356;2023-04-04T06:39:11;2.80;99.90
40822;DHT22;26542;50.836;5.356;2023-04-04T06:41:37;2.90;99.90
40822;DHT22;26542;50.836;5.356;2023-04-04T06:44:03;3.30;99.90
40822;DHT22;26542;50.836;5.356;2023-04-04T06:46:29;3.00;99.90
40822;DHT22;26542;50.836;5.356;2023-04-04T06:48:56;3.30;99.90
40822;DHT22;26542;50.836;5.356;2023-04-04T06:51:21;3.40;99.90
40822;DHT22;26542;50.836;5.356;2023-04-04T06:53:48;3.50;99.90
40822;DHT22;26542;50.836;5.356;2023-04-04T06:56:14;3.70;99.90
40822;DHT22;26542;50.836;5.356;2023-04-04T06:58:40;3.70;99.90
40822;DHT22;26542;50.836;5.356;2023-04-04T07:01:06;3.80;99.90
40822;DHT22;26542;50.836;5.356;2023-04-04T07:03:32;3.90;99.90
40822;DHT22;26542;50.836;5.356;2023-04-04T07:05:57;4.10;99.90
40822;DHT22;26542;50.836;5.356;2023-04-04T07:08:26;4.20;99.90
40822;DHT22;26542;50.836;5.356;2023-04-04T07:10:53;4.30;99.90
40822;DHT22;26542;50.836;5.356;2023-04-04T07:13:19;4.40;99.90
40822;DHT22;26542;50.836;5.356;2023-04-04T07:15:45;4.20;99.90
40822;DHT22;26542;50.836;5.356;2023-04-04T07:18:15;4.30;99.90
40822;DHT22;26542;50.836;5.356;2023-04-04T07:20:41;4.40;99.90
40822;DHT22;26542;50.836;5.356;2023-04-04T07:23:08;4.50;99.90
40822;DHT22;26542;50.836;5.356;2023-04-04T07:25:36;4.60;99.90
40822;DHT22;26542;50.836;5.356;2023-04-04T07:28:02;4.50;99.90
40822;DHT22;26542;50.836;5.356;2023-04-04T07:30:28;4.70;99.90
40822;DHT22;26542;50.836;5.356;2023-04-04T07:32:57;4.80;99.90
40822;DHT22;26542;50.836;5.356;2023-04-04T07:35:23;4.80;99.90
40822;DHT22;26542;50.836;5.356;2023-04-04T07:37:49;4.80;99.90
40822;DHT22;26542;50.836;5.356;2023-04-04T07:40:15;4.90;99.90
40822;DHT22;26542;50.836;5.356;2023-04-04T07:42:47;4.90;99.90
40822;DHT22;26542;50.836;5.356;2023-04-04T07:45:18;5.20;99.90
40822;DHT22;26542;50.836;5.356;2023-04-04T07:47:44;5.10;99.90
40822;DHT22;26542;50.836;5.356;2023-04-04T07:50:14;5.20;99.90
40822;DHT22;26542;50.836;5.356;2023-04-04T07:52:40;5.30;99.90
40822;DHT22;26542;50.836;5.356;2023-04-04T07:55:07;5.40;99.90
40822;DHT22;26542;50.836;5.356;2023-04-04T07:57:38;5.50;99.90
40822;DHT22;26542;50.836;5.356;2023-04-04T08:00:08;5.60;99.90
40822;DHT22;26542;50.836;5.356;2023-04-04T08:02:37;5.80;98.30
40822;DHT22;26542;50.836;5.356;2023-04-04T08:05:03;5.80;96.50
40822;DHT22;26542;50.836;5.356;2023-04-04T08:07:29;5.90;98.30
40822;DHT22;26542;50.836;5.356;2023-04-04T08:09:55;5.90;97.70
40822;DHT22;26542;50.836;5.356;2023-04-04T08:12:21;6.10;95.50
40822;DHT22;26542;50.836;5.356;2023-04-04T08:14:47;6.10;95.40
40822;DHT22;26542;50.836;5.356;2023-04-04T08:17:13;6.10;96.10
40822;DHT22;26542;50.836;5.356;2023-04-04T08:19:43;6.30;96.70
40822;DHT22;26542;50.836;5.356;2023-04-04T08:22:09;6.30;95.80
40822;DHT22;26542;50.836;5.356;2023-04-04T08:24:34;6.40;96.40
40822;DHT22;26542;50.836;5.356;2023-04-04T08:27:01;6.40;94.50
40822;DHT22;26542;50.836;5.356;2023-04-04T08:29:27;6.40;93.80
40822;DHT22;26542;50.836;5.356;2023-04-04T08:31:53;6.60;95.10
40822;DHT22;26542;50.836;5.356;2023-04-04T08:34:19;6.70;95.60
40822;DHT22;26542;50.836;5.356;2023-04-04T08:36:45;6.80;95.70
40822;DHT22;26542;50.836;5.356;2023-04-04T08:39:11;6.80;95.70
40822;DHT22;26542;50.836;5.356;2023-04-04T08:41:38;6.80;93.90
40822;DHT22;26542;50.836;5.356;2023-04-04T08:44:16;6.80;95.70
40822;DHT22;26542;50.836;5.356;2023-04-04T08:46:46;7.00;94.30
40822;DHT22;26542;50.836;5.356;2023-04-04T08:49:15;7.00;92.00
40822;DHT22;26542;50.836;5.356;2023-04-04T08:51:43;7.00;93.00
40822;DHT22;26542;50.836;5.356;2023-04-04T08:54:11;7.10;95.10
40822;DHT22;26542;50.836;5.356;2023-04-04T08:56:37;7.10;93.50
40822;DHT22;26542;50.836;5.356;2023-04-04T08:59:06;7.30;94.90
40822;DHT22;26542;50.836;5.356;2023-04-04T09:01:32;7.50;93.30
40822;DHT22;26542;50.836;5.356;2023-04-04T09:03:58;7.30;92.50
40822;DHT22;26542;50.836;5.356;2023-04-04T09:06:25;7.30;91.90
40822;DHT22;26542;50.836;5.356;2023-04-04T09:08:52;7.40;92.20
40822;DHT22;26542;50.836;5.356;2023-04-04T09:11:20;7.50;92.10
40822;DHT22;26542;50.836;5.356;2023-04-04T09:13:48;7.60;90.30
40822;DHT22;26542;50.836;5.356;2023-04-04T09:16:15;7.60;91.00
40822;DHT22;26542;50.836;5.356;2023-04-04T09:18:42;7.70;91.10
40822;DHT22;26542;50.836;5.356;2023-04-04T09:21:11;7.70;90.50
40822;DHT22;26542;50.836;5.356;2023-04-04T09:23:37;7.80;91.20
40822;DHT22;26542;50.836;5.356;2023-04-04T09:26:03;7.80;90.80
40822;DHT22;26542;50.836;5.356;2023-04-04T09:28:30;8.00;90.30
40822;DHT22;26542;50.836;5.356;2023-04-04T09:30:59;8.10;90.30
40822;DHT22;26542;50.836;5.356;2023-04-04T09:33:26;8.20;92.20
40822;DHT22;26542;50.836;5.356;2023-04-04T09:36:01;8.30;92.40
40822;DHT22;26542;50.836;5.356;2023-04-04T09:38:28;8.40;91.20
40822;DHT22;26542;50.836;5.356;2023-04-04T09:40:55;8.50;90.10
40822;DHT22;26542;50.836;5.356;2023-04-04T09:43:23;8.50;90.80
40822;DHT22;26542;50.836;5.356;2023-04-04T09:45:49;8.50;91.00
40822;DHT22;26542;50.836;5.356;2023-04-04T09:48:26;8.60;89.40
40822;DHT22;26542;50.836;5.356;2023-04-04T09:50:53;8.70;90.10
40822;DHT22;26542;50.836;5.356;2023-04-04T09:53:19;8.80;90.00
40822;DHT22;26542;50.836;5.356;2023-04-04T09:55:53;9.00;88.90
40822;DHT22;26542;50.836;5.356;2023-04-04T09:58:29;9.10;90.10
40822;DHT22;26542;50.836;5.356;2023-04-04T10:01:01;9.10;87.10
40822;DHT22;26542;50.836;5.356;2023-04-04T10:03:29;9.20;88.00
40822;DHT22;26542;50.836;5.356;2023-04-04T10:05:58;9.40;89.50
40822;DHT22;26542;50.836;5.356;2023-04-04T10:08:26;9.50;87.90
40822;DHT22;26542;50.836;5.356;2023-04-04T10:10:57;9.50;90.50
40822;DHT22;26542;50.836;5.356;2023-04-04T10:13:29;9.60;89.40
40822;DHT22;26542;50.836;5.356;2023-04-04T10:15:59;9.70;90.00
40822;DHT22;26542;50.836;5.356;2023-04-04T10:18:31;9.80;89.60
40822;DHT22;26542;50.836;5.356;2023-04-04T10:20:59;9.90;87.20
40822;DHT22;26542;50.836;5.356;2023-04-04T10:23:25;10.00;86.20
40822;DHT22;26542;50.836;5.356;2023-04-04T10:26:01;10.10;87.70
40822;DHT22;26542;50.836;5.356;2023-04-04T10:28:27;10.10;84.70
40822;DHT22;26542;50.836;5.356;2023-04-04T10:36:32;10.20;81.80
40822;DHT22;26542;50.836;5.356;2023-04-04T10:39:08;10.00;83.10
40822;DHT22;26542;50.836;5.356;2023-04-04T10:41:36;10.00;82.90
40822;DHT22;26542;50.836;5.356;2023-04-04T10:46:46;10.00;84.00
40822;DHT22;26542;50.836;5.356;2023-04-04T10:49:16;10.30;84.70
40822;DHT22;26542;50.836;5.356;2023-04-04T10:51:43;10.40;83.10
40822;DHT22;26542;50.836;5.356;2023-04-04T10:54:09;10.30;81.50
40822;DHT22;26542;50.836;5.356;2023-04-04T10:56:35;10.40;84.20
40822;DHT22;26542;50.836;5.356;2023-04-04T10:59:12;10.50;85.70
40822;DHT22;26542;50.836;5.356;2023-04-04T11:01:55;10.60;85.00
40822;DHT22;26542;50.836;5.356;2023-04-04T11:04:30;10.80;83.90
40822;DHT22;26542;50.836;5.356;2023-04-04T11:10:12;11.10;84.30
40822;DHT22;26542;50.836;5.356;2023-04-04T11:12:42;11.30;87.40
40822;DHT22;26542;50.836;5.356;2023-04-04T11:15:11;11.30;81.90
40822;DHT22;26542;50.836;5.356;2023-04-04T11:17:56;11.40;83.40
40822;DHT22;26542;50.836;5.356;2023-04-04T11:20:34;11.50;79.70
40822;DHT22;26542;50.836;5.356;2023-04-04T11:23:08;11.30;78.80
40822;DHT22;26542;50.836;5.356;2023-04-04T11:25:39;11.40;82.40
40822;DHT22;26542;50.836;5.356;2023-04-04T11:28:12;11.30;80.90
40822;DHT22;26542;50.836;5.356;2023-04-04T11:30:42;11.50;80.00
40822;DHT22;26542;50.836;5.356;2023-04-04T11:33:12;11.60;82.10
40822;DHT22;26542;50.836;5.356;2023-04-04T11:35:39;11.80;81.20
40822;DHT22;26542;50.836;5.356;2023-04-04T11:38:13;11.80;82.80
40822;DHT22;26542;50.836;5.356;2023-04-04T11:40:40;11.80;80.50
40822;DHT22;26542;50.836;5.356;2023-04-04T11:43:10;11.80;79.00
40822;DHT22;26542;50.836;5.356;2023-04-04T11:45:42;11.80;81.40
40822;DHT22;26542;50.836;5.356;2023-04-04T11:48:09;11.80;79.90
40822;DHT22;26542;50.836;5.356;2023-04-04T11:50:39;11.70;76.70
40822;DHT22;26542;50.836;5.356;2023-04-04T11:53:09;11.90;81.50
40822;DHT22;26542;50.836;5.356;2023-04-04T11:55:41;11.90;79.40
40822;DHT22;26542;50.836;5.356;2023-04-04T11:58:11;12.00;81.00
40822;DHT22;26542;50.836;5.356;2023-04-04T12:00:37;12.20;81.50
40822;DHT22;26542;50.836;5.356;2023-04-04T12:03:05;12.40;81.50
40822;DHT22;26542;50.836;5.356;2023-04-04T12:05:33;12.50;80.10
40822;DHT22;26542;50.836;5.356;2023-04-04T12:07:59;12.60;78.30
40822;DHT22;26542;50.836;5.356;2023-04-04T12:10:38;12.60;78.90
40822;DHT22;26542;50.836;5.356;2023-04-04T12:13:09;12.70;76.20
40822;DHT22;26542;50.836;5.356;2023-04-04T12:15:35;12.80;78.60
40822;DHT22;26542;50.836;5.356;2023-04-04T12:18:20;12.90;81.70
40822;DHT22;26542;50.836;5.356;2023-04-04T12:20:52;13.00;79.60
40822;DHT22;26542;50.836;5.356;2023-04-04T12:23:18;12.80;75.70
40822;DHT22;26542;50.836;5.356;2023-04-04T12:25:44;12.70;77.20
40822;DHT22;26542;50.836;5.356;2023-04-04T12:28:14;12.80;78.60
40822;DHT22;26542;50.836;5.356;2023-04-04T12:30:40;12.80;76.00
40822;DHT22;26542;50.836;5.356;2023-04-04T12:33:06;12.90;77.80
40822;DHT22;26542;50.836;5.356;2023-04-04T12:35:32;12.90;74.70
40822;DHT22;26542;50.836;5.356;2023-04-04T12:37:58;13.00;77.50
40822;DHT22;26542;50.836;5.356;2023-04-04T12:40:28;13.10;78.90
40822;DHT22;26542;50.836;5.356;2023-04-04T12:42:54;13.10;78.60
40822;DHT22;26542;50.836;5.356;2023-04-04T12:45:21;12.90;73.20
40822;DHT22;26542;50.836;5.356;2023-04-04T12:47:54;12.90;78.50
40822;DHT22;26542;50.836;5.356;2023-04-04T12:50:25;13.00;78.70
40822;DHT22;26542;50.836;5.356;2023-04-04T12:52:52;13.20;77.50
40822;DHT22;26542;50.836;5.356;2023-04-04T12:55:22;13.40;74.80
40822;DHT22;26542;50.836;5.356;2023-04-04T12:57:48;13.00;73.10
40822;DHT22;26542;50.836;5.356;2023-04-04T13:00:14;13.20;75.00
40822;DHT22;26542;50.836;5.356;2023-04-04T13:02:46;13.30;74.10
40822;DHT22;26542;50.836;5.356;2023-04-04T13:05:14;13.10;72.90
40822;DHT22;26542;50.836;5.356;2023-04-04T13:07:43;13.30;75.50
40822;DHT22;26542;50.836;5.356;2023-04-04T13:10:11;13.40;71.70
40822;DHT22;26542;50.836;5.356;2023-04-04T13:12:58;13.50;75.10
40822;DHT22;26542;50.836;5.356;2023-04-04T13:15:50;13.40;72.40
40822;DHT22;26542;50.836;5.356;2023-04-04T13:18:24;13.70;75.20
40822;DHT22;26542;50.836;5.356;2023-04-04T13:20:51;13.80;77.00
40822;DHT22;26542;50.836;5.356;2023-04-04T13:23:18;14.00;74.80
40822;DHT22;26542;50.836;5.356;2023-04-04T13:25:44;14.00;75.50
40822;DHT22;26542;50.836;5.356;2023-04-04T13:28:09;13.90;72.30
40822;DHT22;26542;50.836;5.356;2023-04-04T13:30:36;13.80;71.80
40822;DHT22;26542;50.836;5.356;2023-04-04T13:33:02;14.00;73.80
40822;DHT22;26542;50.836;5.356;2023-04-04T13:35:28;13.80;75.30
40822;DHT22;26542;50.836;5.356;2023-04-04T13:37:54;13.70;70.90
40822;DHT22;26542;50.836;5.356;2023-04-04T13:40:20;13.70;73.80
40822;DHT22;26542;50.836;5.356;2023-04-04T13:42:45;13.80;73.10
40822;DHT22;26542;50.836;5.356;2023-04-04T13:45:11;13.80;73.60
40822;DHT22;26542;50.836;5.356;2023-04-04T13:47:37;13.70;72.70
40822;DHT22;26542;50.836;5.356;2023-04-04T13:50:04;13.70;72.50
40822;DHT22;26542;50.836;5.356;2023-04-04T13:52:30;13.80;72.60
40822;DHT22;26542;50.836;5.356;2023-04-04T13:54:56;13.50;72.80
40822;DHT22;26542;50.836;5.356;2023-04-04T13:57:22;13.50;73.60
40822;DHT22;26542;50.836;5.356;2023-04-04T13:59:48;13.80;72.30
40822;DHT22;26542;50.836;5.356;2023-04-04T14:02:13;13.70;73.30
40822;DHT22;26542;50.836;5.356;2023-04-04T14:04:40;13.70;70.60
40822;DHT22;26542;50.836;5.356;2023-04-04T14:07:06;13.80;73.70
40822;DHT22;26542;50.836;5.356;2023-04-04T14:09:31;13.80;71.50
40822;DHT22;26542;50.836;5.356;2023-04-04T14:11:57;13.70;69.80
40822;DHT22;26542;50.836;5.356;2023-04-04T14:14:23;13.60;72.20
40822;DHT22;26542;50.836;5.356;2023-04-04T14:16:48;13.70;73.20
40822;DHT22;26542;50.836;5.356;2023-04-04T14:19:14;13.90;72.10
40822;DHT22;26542;50.836;5.356;2023-04-04T14:21:40;14.00;71.50
40822;DHT22;26542;50.836;5.356;2023-04-04T14:24:06;14.20;72.20
40822;DHT22;26542;50.836;5.356;2023-04-04T14:26:32;14.10;72.30
40822;DHT22;26542;50.836;5.356;2023-04-04T14:28:58;14.20;72.10
40822;DHT22;26542;50.836;5.356;2023-04-04T14:31:23;14.30;70.20
40822;DHT22;26542;50.836;5.356;2023-04-04T14:33:49;14.20;72.30
40822;DHT22;26542;50.836;5.356;2023-04-04T14:36:15;14.30;69.10
40822;DHT22;26542;50.836;5.356;2023-04-04T14:38:40;14.40;72.50
40822;DHT22;26542;50.836;5.356;2023-04-04T14:41:06;14.30;69.90
40822;DHT22;26542;50.836;5.356;2023-04-04T14:43:32;14.30;71.60
40822;DHT22;26542;50.836;5.356;2023-04-04T14:45:59;14.20;71.20
40822;DHT22;26542;50.836;5.356;2023-04-04T14:48:25;14.20;72.70
40822;DHT22;26542;50.836;5.356;2023-04-04T14:50:51;14.30;72.90
40822;DHT22;26542;50.836;5.356;2023-04-04T14:53:16;14.40;70.80
40822;DHT22;26542;50.836;5.356;2023-04-04T14:55:42;14.50;71.40
40822;DHT22;26542;50.836;5.356;2023-04-04T14:58:08;14.60;69.80
40822;DHT22;26542;50.836;5.356;2023-04-04T15:00:33;14.60;72.40
40822;DHT22;26542;50.836;5.356;2023-04-04T15:03:00;14.50;70.20
40822;DHT22;26542;50.836;5.356;2023-04-04T15:05:27;14.60;72.00
40822;DHT22;26542;50.836;5.356;2023-04-04T15:07:53;14.70;69.80
40822;DHT22;26542;50.836;5.356;2023-04-04T15:10:20;14.80;71.50
40822;DHT22;26542;50.836;5.356;2023-04-04T15:12:45;14.90;68.90
40822;DHT22;26542;50.836;5.356;2023-04-04T15:15:11;14.80;67.70
40822;DHT22;26542;50.836;5.356;2023-04-04T15:17:37;14.90;70.80
40822;DHT22;26542;50.836;5.356;2023-04-04T15:20:03;14.90;70.50
40822;DHT22;26542;50.836;5.356;2023-04-04T15:22:29;15.00;70.20
40822;DHT22;26542;50.836;5.356;2023-04-04T15:24:56;14.90;71.60
40822;DHT22;26542;50.836;5.356;2023-04-04T15:27:22;14.60;68.90
40822;DHT22;26542;50.836;5.356;2023-04-04T15:29:47;14.40;71.10
40822;DHT22;26542;50.836;5.356;2023-04-04T15:32:13;14.50;68.40
40822;DHT22;26542;50.836;5.356;2023-04-04T15:34:39;14.50;69.20
40822;DHT22;26542;50.836;5.356;2023-04-04T15:37:05;14.50;70.80
40822;DHT22;26542;50.836;5.356;2023-04-04T15:39:31;14.40;68.60
40822;DHT22;26542;50.836;5.356;2023-04-04T15:41:58;14.60;69.90
40822;DHT22;26542;50.836;5.356;2023-04-04T15:44:24;14.60;68.90
40822;DHT22;26542;50.836;5.356;2023-04-04T15:46:50;14.50;70.10
40822;DHT22;26542;50.836;5.356;2023-04-04T15:49:15;14.50;69.40
40822;DHT22;26542;50.836;5.356;2023-04-04T15:51:41;14.50;70.90
40822;DHT22;26542;50.836;5.356;2023-04-04T15:54:09;14.50;68.00